Time;durP1;ratioP1;P1;durP2;ratioP2;P2;SDS_P1;SDS_P2;PMS_P1;PMS_P2;Temp;Humidity;BMP_temperature;BMP_pressure;BME280_temperature;BME280_humidity;BME280_pressure;Samples;Min_cycle;Max_cycle;Signal;HPM_P1;HPM_P2
2022/09/23 00:01:13;;;;;;;9.43;5.03;;;9.40;1.00;;;;;;4993101;28;20201;-63
2022/09/23 00:03:44;;;;;;;6.93;4.93;;;9.30;1.00;;;;;;4993385;28;20653;-63
2022/09/23 00:06:17;;;;;;;6.50;4.77;;;9.30;1.00;;;;;;5004486;28;20541;-63
2022/09/23 00:08:45;;;;;;;7.20;4.67;;;9.30;1.00;;;;;;4990837;28;20225;-63
2022/09/23 00:11:14;;;;;;;6.70;4.90;;;9.20;1.00;;;;;;4990796;28;20197;-63
2022/09/23 00:13:43;;;;;;;8.47;4.97;;;9.20;1.00;;;;;;4972880;28;20241;-63
2022/09/23 00:16:16;;;;;;;6.87;4.20;;;9.20;1.00;;;;;;4974146;28;20206;-63
2022/09/23 00:18:43;;;;;;;6.00;4.70;;;9.20;1.00;;;;;;4974056;28;20194;-63
2022/09/23 00:21:12;;;;;;;6.63;4.40;;;9.20;1.00;;;;;;4987618;28;20732;-63
2022/09/23 00:23:41;;;;;;;5.60;4.30;;;9.20;1.00;;;;;;4972070;28;20228;-63
2022/09/23 00:26:12;;;;;;;5.53;4.23;;;9.10;1.00;;;;;;4967590;28;20928;-64
2022/09/23 00:28:39;;;;;;;7.70;3.70;;;9.20;1.00;;;;;;4969627;28;20210;-62
2022/09/23 00:31:09;;;;;;;5.03;3.57;;;9.10;1.00;;;;;;4990495;28;20193;-63
2022/09/23 00:33:36;;;;;;;4.63;3.40;;;9.00;1.00;;;;;;4990702;28;20194;-63
2022/09/23 00:36:05;;;;;;;6.63;3.97;;;8.90;1.00;;;;;;4971290;28;20228;-63
2022/09/23 00:38:35;;;;;;;6.77;3.53;;;8.90;1.00;;;;;;4965029;28;20202;-61
2022/09/23 00:41:02;;;;;;;6.00;3.37;;;8.90;1.00;;;;;;4990916;28;20197;-62
2022/09/23 00:43:51;;;;;;;4.23;3.60;;;8.80;1.00;;;;;;4982294;28;20604;-62
2022/09/23 00:46:20;;;;;;;8.13;4.30;;;8.70;1.00;;;;;;4963392;28;20325;-61
2022/09/23 00:48:53;;;;;;;7.77;4.20;;;8.70;1.00;;;;;;4991209;28;20205;-62
2022/09/23 00:51:23;;;;;;;7.37;4.00;;;8.50;7.30;;;;;;4990316;28;20205;-61
2022/09/23 00:53:51;;;;;;;9.27;3.73;;;8.60;67.60;;;;;;4991947;28;20235;-62
2022/09/23 00:56:21;;;;;;;5.53;4.17;;;8.50;99.90;;;;;;5007291;28;20209;-61
2022/09/23 00:58:52;;;;;;;4.13;3.70;;;8.50;99.90;;;;;;4991850;28;20203;-61
2022/09/23 01:01:20;;;;;;;6.90;3.97;;;8.40;99.90;;;;;;4978164;28;20236;-61
2022/09/23 01:03:48;;;;;;;12.30;10.17;;;8.40;99.90;;;;;;4991255;28;20208;-63
2022/09/23 01:06:16;;;;;;;4.40;3.87;;;8.30;99.90;;;;;;4992206;28;20937;-62
2022/09/23 01:08:45;;;;;;;4.33;3.90;;;8.30;99.90;;;;;;4974625;28;20646;-61
2022/09/23 01:11:25;;;;;;;5.77;4.30;;;8.20;99.90;;;;;;4956293;28;20194;-61
2022/09/23 01:14:14;;;;;;;8.40;3.80;;;8.20;99.90;;;;;;4972495;28;20252;-61
2022/09/23 01:17:04;;;;;;;6.10;3.77;;;8.20;99.90;;;;;;4989940;28;20209;-61
2022/09/23 01:19:50;;;;;;;5.27;3.80;;;8.20;99.90;;;;;;4989903;28;20204;-61
2022/09/23 01:22:22;;;;;;;6.27;3.87;;;8.20;99.90;;;;;;4986003;28;20209;-60
2022/09/23 01:25:27;;;;;;;4.63;3.70;;;8.20;99.90;;;;;;4990195;28;20293;-60
2022/09/23 01:28:26;;;;;;;3.97;3.40;;;8.20;99.90;;;;;;4989749;28;20224;-60
2022/09/23 01:31:28;;;;;;;4.40;3.40;;;8.30;99.90;;;;;;4989619;28;20258;-60
2022/09/23 01:34:02;;;;;;;5.73;3.60;;;8.30;99.90;;;;;;4990485;28;20268;-60
2022/09/23 01:37:07;;;;;;;5.17;3.20;;;8.30;99.90;;;;;;4989733;28;20189;-61
2022/09/23 01:39:55;;;;;;;7.27;3.87;;;8.40;99.90;;;;;;4966890;28;20596;-61
2022/09/23 01:42:32;;;;;;;4.40;3.30;;;8.50;70.40;;;;;;4990001;28;20556;-62
2022/09/23 01:45:13;;;;;;;5.13;3.70;;;8.50;1.00;;;;;;4990199;28;20190;-61
2022/09/23 01:47:53;;;;;;;5.17;3.33;;;8.60;1.00;;;;;;4988561;28;20209;-61
2022/09/23 01:53:40;;;;;;;3.90;3.50;;;8.70;1.00;;;;;;4988900;28;20202;-62
2022/09/23 01:56:15;;;;;;;9.93;4.10;;;8.70;1.00;;;;;;4979523;28;20208;-61
2022/09/23 01:58:52;;;;;;;5.87;3.87;;;8.70;1.00;;;;;;4990376;28;20234;-62
2022/09/23 02:01:33;;;;;;;5.27;3.83;;;8.80;1.00;;;;;;4986637;28;20197;-62
2022/09/23 02:04:14;;;;;;;4.53;3.30;;;8.80;1.00;;;;;;4973759;28;20205;-62
2022/09/23 02:06:50;;;;;;;7.67;3.87;;;8.70;1.00;;;;;;4989322;28;20204;-62
2022/09/23 02:09:24;;;;;;;5.53;4.10;;;8.70;1.00;;;;;;4990551;28;20205;-62
2022/09/23 02:16:27;;;;;;;6.60;4.17;;;8.70;1.00;;;;;;4987242;28;20212;-61
2022/09/23 02:19:00;;;;;;;7.60;4.30;;;8.70;1.00;;;;;;4989010;28;20193;-61
2022/09/23 02:21:33;;;;;;;4.97;3.50;;;8.60;1.00;;;;;;4971119;28;20202;-62
2022/09/23 02:24:13;;;;;;;5.43;3.80;;;8.60;1.00;;;;;;5000279;28;20198;-61
2022/09/23 02:27:06;;;;;;;6.47;3.70;;;8.50;1.00;;;;;;4986577;28;20555;-61
2022/09/23 02:30:02;;;;;;;4.60;3.60;;;8.40;17.90;;;;;;5002168;28;20469;-61
2022/09/23 02:32:35;;;;;;;6.50;3.80;;;8.40;76.00;;;;;;4989336;28;20248;-61
2022/09/23 02:35:14;;;;;;;6.97;4.07;;;8.40;99.90;;;;;;4988266;28;20197;-61
2022/09/23 02:37:52;;;;;;;3.57;3.23;;;8.40;99.90;;;;;;5004073;28;20209;-60
2022/09/23 02:40:28;;;;;;;4.53;3.83;;;8.20;99.90;;;;;;4989046;28;20657;-60
2022/09/23 02:43:04;;;;;;;7.07;3.93;;;8.20;99.90;;;;;;4969537;28;20208;-60
2022/09/23 02:45:32;;;;;;;5.33;3.67;;;8.20;99.90;;;;;;4988273;28;20236;-62
2022/09/23 02:48:17;;;;;;;4.50;3.60;;;8.10;99.90;;;;;;4972285;28;20237;-61
2022/09/23 02:50:46;;;;;;;5.37;3.80;;;8.10;1.00;;;;;;4970506;28;20297;-61
2022/09/23 02:53:16;;;;;;;10.97;3.53;;;8.30;1.00;;;;;;4986623;28;20193;-62
2022/09/23 02:55:43;;;;;;;7.67;4.03;;;8.30;99.90;;;;;;4970983;28;20208;-62
2022/09/23 02:58:13;;;;;;;8.83;5.80;;;8.30;1.00;;;;;;4987359;28;20197;-62
2022/09/23 03:01:04;;;;;;;8.37;4.27;;;8.40;1.00;;;;;;4990126;28;20296;-60
2022/09/23 03:03:37;;;;;;;11.70;4.60;;;8.60;99.90;;;;;;4986614;28;20248;-61
2022/09/23 03:06:24;;;;;;;8.27;6.63;;;8.60;99.90;;;;;;4990081;28;20206;-60
2022/09/23 03:09:05;;;;;;;7.00;5.47;;;8.60;99.90;;;;;;4979789;28;20585;-61
2022/09/23 03:11:37;;;;;;;9.23;5.37;;;8.50;99.90;;;;;;4989081;28;20193;-61
2022/09/23 03:14:24;;;;;;;10.70;7.47;;;8.50;63.30;;;;;;4971386;28;20204;-60
2022/09/23 03:17:00;;;;;;;3.40;3.10;;;8.60;99.90;;;;;;4972457;28;20245;-61
2022/09/23 03:19:48;;;;;;;6.43;4.83;;;8.60;1.00;;;;;;5002674;28;20217;-61
2022/09/23 03:22:41;;;;;;;15.37;8.03;;;8.50;6.80;;;;;;4987356;28;20593;-62
2022/09/23 03:25:12;;;;;;;5.57;3.30;;;8.40;99.90;;;;;;5002246;28;20218;-62
2022/09/23 03:27:41;;;;;;;4.47;3.43;;;8.40;1.00;;;;;;4988174;28;20213;-61
2022/09/23 03:30:09;;;;;;;3.80;3.40;;;8.40;1.00;;;;;;4963524;28;20201;-61
2022/09/23 03:32:38;;;;;;;4.23;3.20;;;8.40;1.00;;;;;;4986490;28;20292;-62
2022/09/23 03:35:05;;;;;;;5.23;3.50;;;8.30;1.00;;;;;;4961787;28;20781;-62
2022/09/23 03:37:47;;;;;;;4.07;3.53;;;8.20;22.40;;;;;;4985512;28;20201;-62
2022/09/23 03:40:29;;;;;;;6.13;3.40;;;8.10;99.90;;;;;;4971407;28;20201;-61
2022/09/23 03:42:59;;;;;;;5.47;4.13;;;8.00;99.90;;;;;;5001902;28;20202;-61
2022/09/23 03:45:31;;;;;;;8.10;3.60;;;8.00;99.90;;;;;;4987607;28;20649;-61
2022/09/23 03:47:58;;;;;;;9.07;3.80;;;8.00;99.90;;;;;;4988561;28;20217;-61
2022/09/23 03:50:25;;;;;;;4.63;3.43;;;8.00;99.90;;;;;;4987854;28;20229;-62
2022/09/23 03:52:54;;;;;;;6.57;3.20;;;8.00;99.90;;;;;;4987659;28;20204;-61
2022/09/23 03:55:21;;;;;;;4.77;3.73;;;8.00;99.90;;;;;;4988451;28;20190;-60
2022/09/23 03:57:48;;;;;;;6.07;4.53;;;8.10;99.90;;;;;;5003560;28;20208;-62
2022/09/23 04:00:15;;;;;;;7.67;6.13;;;8.00;99.90;;;;;;4988114;28;20727;-59
2022/09/23 04:02:43;;;;;;;7.03;4.47;;;8.10;99.90;;;;;;5003112;28;20197;-62
2022/09/23 04:05:11;;;;;;;9.10;4.90;;;8.00;99.90;;;;;;4988898;28;20281;-60
2022/09/23 04:07:38;;;;;;;7.40;4.67;;;7.90;99.90;;;;;;4986444;28;20233;-61
2022/09/23 04:10:06;;;;;;;6.23;3.90;;;7.90;99.90;;;;;;4979609;28;20228;-61
2022/09/23 04:12:33;;;;;;;6.50;4.07;;;7.90;99.90;;;;;;4991698;28;20217;-60
2022/09/23 04:15:00;;;;;;;7.80;4.30;;;7.80;99.90;;;;;;4991447;28;20198;-61
2022/09/23 04:17:27;;;;;;;6.70;4.00;;;7.80;99.90;;;;;;4973708;28;20723;-62
2022/09/23 04:19:54;;;;;;;7.83;4.27;;;7.80;99.90;;;;;;4990405;28;20206;-60
2022/09/23 04:22:21;;;;;;;5.10;4.23;;;7.80;99.90;;;;;;4981561;28;20305;-60
2022/09/23 04:24:48;;;;;;;5.80;4.67;;;7.80;99.90;;;;;;4990945;28;21156;-61
2022/09/23 04:27:15;;;;;;;5.43;4.07;;;7.90;99.90;;;;;;4990024;28;20225;-60
2022/09/23 04:29:42;;;;;;;5.67;3.90;;;7.90;99.90;;;;;;4975126;28;20189;-60
2022/09/23 04:32:09;;;;;;;6.63;4.13;;;7.90;99.90;;;;;;4990882;28;20205;-61
2022/09/23 04:34:36;;;;;;;6.67;3.87;;;7.90;99.90;;;;;;4991497;28;20317;-61
2022/09/23 04:37:03;;;;;;;5.23;4.00;;;7.90;99.90;;;;;;4990222;28;20220;-61
2022/09/23 04:39:30;;;;;;;9.47;4.37;;;7.90;99.90;;;;;;4972320;28;20666;-61
2022/09/23 04:41:57;;;;;;;6.10;4.80;;;7.80;98.10;;;;;;4987739;28;20675;-62
2022/09/23 04:44:26;;;;;;;6.13;4.50;;;7.80;70.80;;;;;;4990622;28;20201;-62
2022/09/23 04:46:54;;;;;;;7.70;4.63;;;7.70;99.90;;;;;;4988966;28;20292;-62
2022/09/23 04:49:21;;;;;;;6.27;4.93;;;7.70;99.90;;;;;;4973613;28;20214;-62
2022/09/23 04:51:47;;;;;;;9.23;4.50;;;7.60;99.90;;;;;;4990244;28;20288;-62
2022/09/23 04:54:14;;;;;;;6.60;4.97;;;7.50;99.90;;;;;;5005550;28;20280;-62
2022/09/23 04:56:41;;;;;;;7.90;4.50;;;7.40;1.00;;;;;;4993199;28;20608;-63
2022/09/23 04:59:08;;;;;;;6.83;4.60;;;7.30;1.00;;;;;;5007063;28;20673;-62
2022/09/23 05:01:36;;;;;;;5.10;4.53;;;7.30;1.00;;;;;;4991560;28;20296;-63
2022/09/23 05:04:06;;;;;;;8.77;4.57;;;7.20;1.00;;;;;;5007218;28;20210;-63
2022/09/23 05:06:34;;;;;;;6.67;4.57;;;7.10;1.00;;;;;;4990437;28;20288;-63
2022/09/23 05:09:04;;;;;;;7.80;5.03;;;7.10;1.00;;;;;;4991279;28;20881;-63
2022/09/23 05:11:31;;;;;;;7.30;4.40;;;7.10;1.00;;;;;;4989575;28;20205;-63
2022/09/23 05:13:58;;;;;;;7.90;4.70;;;7.00;1.00;;;;;;4982227;28;20287;-63
2022/09/23 05:16:25;;;;;;;6.73;4.90;;;7.00;1.00;;;;;;4991191;28;20708;-63
2022/09/23 05:18:53;;;;;;;9.10;5.40;;;7.00;1.00;;;;;;4991093;28;20206;-63
2022/09/23 05:21:27;;;;;;;9.27;5.17;;;7.00;1.00;;;;;;4972641;28;20218;-65
2022/09/23 05:23:57;;;;;;;10.00;5.13;;;7.00;1.00;;;;;;4964849;28;20215;-64
2022/09/23 05:26:27;;;;;;;8.50;5.23;;;7.00;1.00;;;;;;4990182;28;20207;-64
2022/09/23 05:28:54;;;;;;;7.77;5.20;;;7.00;1.00;;;;;;4991007;28;20230;-61
2022/09/23 05:31:24;;;;;;;5.30;4.80;;;7.10;1.00;;;;;;4990789;28;20197;-62
2022/09/23 05:33:59;;;;;;;6.53;5.10;;;7.10;1.00;;;;;;4989623;28;20205;-63
2022/09/23 05:36:28;;;;;;;9.23;4.90;;;7.20;1.00;;;;;;5006171;28;20237;-64
2022/09/23 05:39:02;;;;;;;8.87;4.40;;;7.20;1.00;;;;;;4970995;28;20236;-64
2022/09/23 05:41:29;;;;;;;6.90;4.97;;;7.30;1.00;;;;;;4970721;28;20201;-63
2022/09/23 05:43:56;;;;;;;6.53;4.87;;;7.40;1.00;;;;;;4988039;28;20202;-62
2022/09/23 05:46:26;;;;;;;9.97;4.87;;;7.50;1.00;;;;;;4967380;28;20923;-62
2022/09/23 05:48:58;;;;;;;7.60;5.00;;;7.60;99.90;;;;;;4981146;28;20249;-61
2022/09/23 05:51:34;;;;;;;8.43;5.27;;;7.70;99.90;;;;;;4984323;28;20185;-62
2022/09/23 05:54:02;;;;;;;7.13;4.90;;;7.80;99.90;;;;;;4986078;28;20197;-62
2022/09/23 05:56:31;;;;;;;6.43;4.80;;;8.00;99.90;;;;;;4985281;28;20198;-63
2022/09/23 05:59:00;;;;;;;11.03;6.40;;;8.20;1.00;;;;;;4987157;28;20221;-62
2022/09/23 06:01:33;;;;;;;7.40;6.07;;;8.40;1.00;;;;;;4986497;28;20204;-62
2022/09/23 06:04:03;;;;;;;14.70;10.23;;;8.70;1.00;;;;;;4987836;28;20228;-63
2022/09/23 06:06:38;;;;;;;17.17;9.50;;;9.10;1.00;;;;;;4986525;28;20225;-63
2022/09/23 06:09:07;;;;;;;17.27;10.90;;;9.80;99.90;;;;;;4986345;28;20735;-61
2022/09/23 06:11:34;;;;;;;10.87;5.80;;;10.80;1.00;;;;;;4971886;28;20280;-63
2022/09/23 06:14:02;;;;;;;12.40;9.27;;;11.40;1.00;;;;;;4987796;28;20620;-62
2022/09/23 06:16:31;;;;;;;12.90;8.77;;;12.60;1.00;;;;;;5003464;28;20669;-64
2022/09/23 06:19:04;;;;;;;13.03;10.00;;;15.00;99.90;;;;;;4988456;28;20193;-64
2022/09/23 06:21:33;;;;;;;9.65;7.10;;;17.10;30.90;;;;;;5002013;28;20193;-61
2022/09/23 06:24:01;;;;;;;7.72;5.88;;;18.20;1.00;;;;;;4981265;28;20617;-61
2022/09/23 06:26:32;;;;;;;11.85;5.95;;;18.40;1.00;;;;;;4985719;28;20218;-61
2022/09/23 06:29:03;;;;;;;11.63;6.80;;;19.60;1.00;;;;;;5004283;28;21498;-61
2022/09/23 06:31:30;;;;;;;10.05;5.65;;;20.10;1.00;;;;;;4989275;28;20261;-61
2022/09/23 06:33:57;;;;;;;9.95;5.78;;;20.40;1.00;;;;;;4986885;28;20202;-61
2022/09/23 06:36:36;;;;;;;11.15;7.55;;;19.90;1.00;;;;;;4987833;28;20189;-61
2022/09/23 06:39:10;;;;;;;8.02;6.50;;;19.50;1.00;;;;;;4983428;28;20232;-62
2022/09/23 06:41:38;;;;;;;6.43;4.88;;;19.20;1.00;;;;;;4986554;28;20201;-61
2022/09/23 06:44:10;;;;;;;12.82;9.57;;;18.60;1.00;;;;;;4985840;28;20931;-61
2022/09/23 06:46:37;;;;;;;17.60;10.10;;;17.50;1.00;;;;;;4968492;28;20205;-61
2022/09/23 06:49:04;;;;;;;9.00;3.25;;;17.40;1.00;;;;;;4967701;28;20240;-61
2022/09/23 06:51:31;;;;;;;12.95;6.32;;;17.20;1.00;;;;;;4988086;28;20194;-61
2022/09/23 06:53:58;;;;;;;11.13;5.75;;;17.40;1.00;;;;;;4986650;28;20209;-61
2022/09/23 06:56:25;;;;;;;10.10;4.40;;;17.40;1.00;;;;;;4984733;28;20237;-61
2022/09/23 06:58:53;;;;;;;23.60;14.35;;;18.00;1.00;;;;;;4987012;28;20208;-61
2022/09/23 07:01:21;;;;;;;28.65;20.55;;;19.60;1.00;;;;;;4986086;28;20197;-61
2022/09/23 07:03:48;;;;;;;13.68;10.48;;;21.20;1.00;;;;;;4985400;28;20276;-62
2022/09/23 07:06:16;;;;;;;4.68;3.63;;;22.40;43.30;;;;;;4984444;28;20721;-61
2022/09/23 07:08:46;;;;;;;4.25;2.38;;;22.30;53.10;;;;;;4988826;28;20820;-61
2022/09/23 07:11:14;;;;;;;8.60;5.60;;;23.00;47.40;;;;;;4989593;28;20200;-61
2022/09/23 07:13:41;;;;;;;4.53;2.38;;;23.90;46.00;;;;;;4989398;28;20312;-61
2022/09/23 07:16:10;;;;;;;4.70;2.20;;;24.40;42.20;;;;;;4988549;28;20221;-62
2022/09/23 07:18:37;;;;;;;2.42;1.98;;;23.70;38.10;;;;;;4989002;28;20661;-63
2022/09/23 07:21:07;;;;;;;3.38;2.40;;;23.70;37.60;;;;;;4953767;28;20601;-62
2022/09/23 07:23:36;;;;;;;4.07;2.10;;;23.70;36.80;;;;;;4988656;28;20205;-61
2022/09/23 07:26:04;;;;;;;6.82;2.47;;;23.60;36.00;;;;;;5003603;28;20206;-61
2022/09/23 07:28:31;;;;;;;2.40;2.20;;;23.60;34.10;;;;;;5003085;28;20221;-62
2022/09/23 07:31:10;;;;;;;3.05;2.28;;;23.70;33.50;;;;;;4988593;28;20280;-62
2022/09/23 07:33:39;;;;;;;3.05;2.15;;;24.20;30.00;;;;;;4986851;28;20193;-61
2022/09/23 07:36:18;;;;;;;5.80;2.50;;;20.50;25.90;;;;;;4988989;28;20569;-61
2022/09/23 07:38:46;;;;;;;6.07;2.40;;;20.50;31.20;;;;;;4989214;28;20211;-62
2022/09/23 07:41:16;;;;;;;4.50;2.30;;;21.80;33.70;;;;;;4989647;28;20201;-61
2022/09/23 07:43:44;;;;;;;4.50;2.17;;;20.80;28.50;;;;;;4989216;28;20293;-61
2022/09/23 07:46:15;;;;;;;7.13;2.78;;;21.30;28.70;;;;;;4973983;28;20246;-61
2022/09/23 07:48:44;;;;;;;5.88;2.75;;;21.50;29.30;;;;;;4984469;28;20225;-61
2022/09/23 07:51:17;;;;;;;3.53;2.40;;;21.50;26.20;;;;;;4975847;28;20669;-63
2022/09/23 07:53:47;;;;;;;3.47;2.22;;;21.70;25.80;;;;;;4992506;28;20194;-61
2022/09/23 07:56:14;;;;;;;5.68;2.60;;;21.70;24.40;;;;;;4968170;28;20302;-62
2022/09/23 07:58:42;;;;;;;4.85;2.50;;;21.40;24.70;;;;;;4991717;28;20206;-63
2022/09/23 08:01:10;;;;;;;5.63;2.35;;;21.60;27.80;;;;;;4993366;28;20201;-63
2022/09/23 08:03:38;;;;;;;5.03;2.58;;;20.80;26.10;;;;;;4974798;28;20792;-62
2022/09/23 08:06:10;;;;;;;4.95;3.40;;;20.70;28.40;;;;;;4992109;28;20201;-63
2022/09/23 08:08:42;;;;;;;8.32;2.95;;;22.30;28.60;;;;;;4991603;28;20213;-63
2022/09/23 08:11:12;;;;;;;12.00;9.68;;;22.20;24.40;;;;;;4965862;28;20213;-63
2022/09/23 08:13:39;;;;;;;8.00;4.10;;;21.80;28.20;;;;;;4992168;28;20223;-63
2022/09/23 08:16:06;;;;;;;6.13;2.90;;;21.20;28.60;;;;;;4974992;28;20304;-63
2022/09/23 08:18:33;;;;;;;5.80;2.50;;;20.10;23.90;;;;;;4974722;28;20232;-63
2022/09/23 08:21:01;;;;;;;7.85;3.30;;;20.20;16.00;;;;;;4991120;28;20624;-63
2022/09/23 08:23:32;;;;;;;6.18;3.10;;;20.70;19.90;;;;;;4952199;28;20223;-63
2022/09/23 08:26:01;;;;;;;6.60;4.07;;;22.10;25.20;;;;;;4974481;28;20565;-63
2022/09/23 08:28:28;;;;;;;5.53;3.75;;;21.70;23.70;;;;;;4991093;28;20728;-63
2022/09/23 08:30:55;;;;;;;4.20;3.00;;;23.20;25.40;;;;;;4992449;28;20564;-63
2022/09/23 08:33:23;;;;;;;7.35;2.63;;;23.50;24.70;;;;;;4973521;28;20304;-63
2022/09/23 08:35:51;;;;;;;4.28;2.78;;;24.50;24.60;;;;;;4991419;28;20710;-62
2022/09/23 08:38:19;;;;;;;4.97;2.75;;;25.00;25.70;;;;;;4991368;28;20189;-62
2022/09/23 08:40:48;;;;;;;3.28;2.45;;;24.20;23.10;;;;;;4990923;28;20698;-63
2022/09/23 08:43:27;;;;;;;8.30;5.15;;;24.40;23.90;;;;;;4991319;28;20201;-62
2022/09/23 08:45:56;;;;;;;3.65;2.90;;;25.80;24.10;;;;;;5005535;28;20212;-62
2022/09/23 08:48:28;;;;;;;7.03;2.70;;;25.20;22.20;;;;;;4990796;28;20643;-62
2022/09/23 08:51:02;;;;;;;5.47;2.45;;;24.90;22.50;;;;;;4990278;28;20202;-63
2022/09/23 08:53:34;;;;;;;4.97;2.58;;;23.00;19.70;;;;;;4992085;28;20211;-63
2022/09/23 08:56:12;;;;;;;4.47;3.60;;;22.60;19.30;;;;;;5005307;28;20209;-63
2022/09/23 08:59:10;;;;;;;4.95;2.67;;;23.70;21.60;;;;;;4991107;28;20292;-63
2022/09/23 09:01:52;;;;;;;3.35;2.30;;;22.90;18.90;;;;;;4963162;28;20325;-62
2022/09/23 09:04:36;;;;;;;3.33;2.00;;;22.50;18.70;;;;;;4989869;28;20205;-63
2022/09/23 09:07:12;;;;;;;3.20;2.20;;;21.90;17.00;;;;;;4990439;28;20207;-63
2022/09/23 09:10:05;;;;;;;3.55;2.25;;;21.60;16.00;;;;;;4976063;28;20221;-64
2022/09/23 09:12:46;;;;;;;3.92;2.45;;;20.40;14.30;;;;;;4990828;28;20633;-62
2022/09/23 09:15:22;;;;;;;3.58;2.55;;;20.20;6.50;;;;;;4990854;28;20556;-62
2022/09/23 09:18:06;;;;;;;7.10;2.47;;;19.20;1.00;;;;;;4990916;28;20284;-63
2022/09/23 09:20:42;;;;;;;3.65;2.20;;;19.80;1.00;;;;;;4966076;28;20217;-62
2022/09/23 09:23:28;;;;;;;4.68;2.50;;;20.10;1.00;;;;;;4990359;28;20209;-63
2022/09/23 09:25:59;;;;;;;5.32;2.35;;;20.40;1.00;;;;;;4965440;28;20196;-62
2022/09/23 09:28:34;;;;;;;5.68;2.70;;;20.70;1.00;;;;;;4975249;28;20201;-61
2022/09/23 09:31:24;;;;;;;3.47;2.42;;;20.80;1.00;;;;;;4990962;28;20827;-61
2022/09/23 09:34:04;;;;;;;3.60;2.30;;;20.30;1.00;;;;;;4991033;28;20208;-63
2022/09/23 09:36:46;;;;;;;4.60;2.63;;;19.90;1.00;;;;;;4966182;28;20301;-62
2022/09/23 09:39:14;;;;;;;7.90;2.63;;;19.70;1.00;;;;;;5005849;28;20194;-63
2022/09/23 09:41:46;;;;;;;2.53;2.08;;;20.30;1.00;;;;;;4979960;28;20217;-63
2022/09/23 09:44:36;;;;;;;5.07;2.13;;;20.50;1.00;;;;;;4990714;28;20206;-64
2022/09/23 09:47:27;;;;;;;3.17;2.33;;;20.70;1.00;;;;;;4981632;28;20210;-62
2022/09/23 09:50:07;;;;;;;4.70;3.00;;;19.70;1.00;;;;;;4989804;28;20284;-63
2022/09/23 09:52:34;;;;;;;4.95;1.98;;;20.50;1.00;;;;;;4990085;28;20201;-63
2022/09/23 09:55:12;;;;;;;6.30;2.28;;;20.70;1.00;;;;;;5003597;28;20691;-62
2022/09/23 09:57:47;;;;;;;5.57;2.00;;;21.20;1.50;;;;;;4990200;28;20201;-63
2022/09/23 10:00:20;;;;;;;3.92;2.75;;;21.30;1.10;;;;;;4989396;28;20197;-64
2022/09/23 10:03:01;;;;;;;3.67;2.20;;;22.20;10.10;;;;;;4990438;28;20643;-62
2022/09/23 10:05:51;;;;;;;4.47;3.88;;;23.00;5.40;;;;;;4989189;28;20275;-63
2022/09/23 10:08:21;;;;;;;2.80;1.85;;;23.70;14.70;;;;;;4989060;28;20193;-63
2022/09/23 10:11:05;;;;;;;6.30;3.00;;;23.60;11.40;;;;;;5002745;28;20285;-63
2022/09/23 10:13:33;;;;;;;3.17;2.33;;;23.30;14.40;;;;;;4963011;28;20222;-63
2022/09/23 10:16:02;;;;;;;4.95;2.00;;;22.80;11.20;;;;;;4988570;28;20312;-63
2022/09/23 10:18:46;;;;;;;2.28;2.03;;;22.20;9.00;;;;;;4987853;28;20673;-63
2022/09/23 10:21:16;;;;;;;3.00;1.80;;;22.90;12.10;;;;;;4989238;28;20193;-63
2022/09/23 10:24:00;;;;;;;2.35;1.65;;;21.40;9.30;;;;;;4989490;28;20576;-63
2022/09/23 10:26:51;;;;;;;4.07;2.08;;;21.60;11.00;;;;;;4988100;28;20203;-62
2022/09/23 10:29:23;;;;;;;4.18;1.83;;;20.90;8.90;;;;;;4989644;28;20557;-64
2022/09/23 10:32:24;;;;;;;2.92;1.98;;;20.50;9.80;;;;;;4991320;28;20922;-63
2022/09/23 10:35:02;;;;;;;3.95;2.00;;;20.60;12.20;;;;;;4964902;28;20240;-63
2022/09/23 10:37:31;;;;;;;4.38;1.98;;;20.50;10.70;;;;;;4966427;28;20557;-63
2022/09/23 10:49:08;;;;;;;2.63;1.75;;;21.40;9.80;;;;;;4989607;28;20198;-62
2022/09/23 10:52:06;;;;;;;3.80;2.17;;;21.10;10.50;;;;;;4989871;28;20607;-62
2022/09/23 10:54:56;;;;;;;5.15;2.10;;;21.20;12.70;;;;;;5003423;28;20205;-62
2022/09/23 10:57:40;;;;;;;3.00;2.03;;;21.70;28.40;;;;;;4983733;28;20217;-63
2022/09/23 11:00:40;;;;;;;4.30;2.40;;;21.20;7.30;;;;;;5004379;28;20260;-62
2022/09/23 11:03:21;;;;;;;5.18;2.45;;;21.40;13.00;;;;;;4988603;28;20685;-63
2022/09/23 11:05:48;;;;;;;6.07;2.80;;;20.90;10.70;;;;;;4988851;28;20229;-62
2022/09/23 11:08:30;;;;;;;3.65;1.92;;;20.90;11.20;;;;;;5000325;28;20208;-62
2022/09/23 11:11:26;;;;;;;4.22;2.10;;;21.00;9.50;;;;;;4986741;28;20227;-62
2022/09/23 11:14:19;;;;;;;2.15;1.90;;;20.90;10.50;;;;;;4975745;28;20300;-61
2022/09/23 11:17:13;;;;;;;5.50;2.20;;;20.80;10.30;;;;;;4980218;28;20233;-63
2022/09/23 11:19:59;;;;;;;3.92;2.22;;;20.80;10.00;;;;;;4967237;28;20213;-62
2022/09/23 11:22:55;;;;;;;5.00;2.75;;;20.60;9.50;;;;;;4992967;28;20209;-62
2022/09/23 11:26:03;;;;;;;3.78;1.80;;;20.40;8.60;;;;;;4993210;28;20204;-62
2022/09/23 11:28:49;;;;;;;2.70;2.17;;;20.40;8.60;;;;;;4991321;28;20973;-62
2022/09/23 11:31:40;;;;;;;4.13;2.28;;;20.40;11.00;;;;;;4976690;28;20216;-62
2022/09/23 11:34:26;;;;;;;4.40;2.30;;;20.40;10.00;;;;;;4992320;28;20202;-63
2022/09/23 11:37:19;;;;;;;4.65;2.33;;;20.10;10.60;;;;;;4993654;28;20533;-62
2022/09/23 11:40:28;;;;;;;10.90;2.20;;;20.60;6.80;;;;;;4975095;28;20233;-63
2022/09/23 11:42:59;;;;;;;3.63;1.88;;;21.20;9.60;;;;;;4991726;28;20229;-63
2022/09/23 11:45:32;;;;;;;3.28;2.25;;;22.00;9.90;;;;;;4993028;28;20288;-62
2022/09/23 11:48:08;;;;;;;3.03;2.10;;;22.20;8.00;;;;;;4993931;28;20201;-63
2022/09/23 11:50:46;;;;;;;3.15;2.03;;;21.70;5.50;;;;;;4993105;28;20287;-63
2022/09/23 11:53:43;;;;;;;4.53;2.10;;;21.80;7.40;;;;;;4993785;28;20197;-60
2022/09/23 11:56:27;;;;;;;3.08;2.50;;;22.80;23.30;;;;;;4992548;28;20200;-63
2022/09/23 11:59:30;;;;;;;3.33;1.90;;;22.90;7.60;;;;;;4993867;28;20252;-62
2022/09/23 12:02:47;;;;;;;3.45;2.05;;;22.70;4.90;;;;;;4993471;28;20224;-61
2022/09/23 12:05:38;;;;;;;2.55;1.90;;;22.10;4.40;;;;;;4993186;28;20197;-62
2022/09/23 12:08:23;;;;;;;2.75;1.88;;;21.90;4.00;;;;;;4993746;28;20198;-63
2022/09/23 12:11:14;;;;;;;4.90;1.70;;;20.80;1.80;;;;;;4991268;28;20244;-63
2022/09/23 12:13:51;;;;;;;2.13;1.85;;;21.00;2.70;;;;;;4992132;28;20309;-63
2022/09/23 12:16:24;;;;;;;4.20;2.63;;;21.50;2.80;;;;;;4992115;28;20224;-62
2022/09/23 12:19:03;;;;;;;4.38;2.10;;;22.00;3.40;;;;;;4993260;28;20229;-62
2022/09/23 12:21:55;;;;;;;3.67;1.90;;;22.40;5.20;;;;;;4992809;28;20208;-63
2022/09/23 12:24:35;;;;;;;3.05;1.95;;;22.60;3.60;;;;;;4975605;28;20242;-62
2022/09/23 12:27:09;;;;;;;2.70;1.85;;;21.70;1.10;;;;;;4974949;28;20220;-63
2022/09/23 12:29:38;;;;;;;3.38;2.20;;;21.30;1.00;;;;;;4991811;28;20193;-63
2022/09/23 12:32:08;;;;;;;3.22;1.90;;;21.90;3.00;;;;;;4977710;28;20304;-62
2022/09/23 12:34:50;;;;;;;2.70;1.90;;;22.30;4.00;;;;;;4992661;28;20548;-62
2022/09/23 12:37:27;;;;;;;4.22;2.25;;;22.60;4.10;;;;;;4989065;28;20204;-63
2022/09/23 12:40:06;;;;;;;3.20;2.00;;;22.70;4.50;;;;;;4975308;28;20706;-64
2022/09/23 12:42:33;;;;;;;2.60;1.90;;;22.70;3.90;;;;;;4990926;28;20194;-63
2022/09/23 12:45:36;;;;;;;4.40;1.85;;;22.30;2.20;;;;;;4974756;28;20201;-63
2022/09/23 12:48:16;;;;;;;2.97;2.10;;;21.70;2.40;;;;;;5007646;28;20747;-63
2022/09/23 12:50:47;;;;;;;2.90;1.83;;;21.60;1.20;;;;;;4991636;28;20228;-63
2022/09/23 12:53:32;;;;;;;3.08;2.03;;;21.90;4.80;;;;;;4990476;28;20193;-63
2022/09/23 12:56:26;;;;;;;2.67;1.85;;;21.80;4.10;;;;;;4990158;28;20281;-63
2022/09/23 12:59:08;;;;;;;3.10;1.75;;;21.50;4.50;;;;;;4974764;28;20220;-62
2022/09/23 13:01:36;;;;;;;2.72;2.10;;;21.10;2.40;;;;;;4992056;28;20201;-62
2022/09/23 13:07:06;;;;;;;2.97;1.88;;;21.70;5.10;;;;;;4991378;28;20718;-61
2022/09/23 13:09:41;;;;;;;5.25;1.95;;;21.70;4.20;;;;;;4991096;28;20228;-63
2022/09/23 13:12:29;;;;;;;3.40;2.50;;;21.60;3.90;;;;;;5006307;28;20320;-62
2022/09/23 13:15:02;;;;;;;3.00;2.25;;;21.60;3.10;;;;;;4991436;28;20271;-63
2022/09/23 13:17:32;;;;;;;3.38;1.85;;;21.80;4.50;;;;;;4991442;28;20240;-63
2022/09/23 13:20:35;;;;;;;2.05;1.85;;;21.70;3.80;;;;;;4991367;28;20232;-62
2022/09/23 13:23:10;;;;;;;4.40;2.10;;;22.00;4.50;;;;;;4975197;28;20312;-62
2022/09/23 13:25:40;;;;;;;2.28;1.92;;;21.90;4.10;;;;;;4990435;28;20291;-62
2022/09/23 13:28:52;;;;;;;2.92;2.35;;;21.90;3.60;;;;;;4991378;28;20229;-61
2022/09/23 13:31:20;;;;;;;3.65;2.08;;;22.10;3.70;;;;;;4991206;28;20689;-61
2022/09/23 13:33:58;;;;;;;2.42;2.00;;;21.80;2.40;;;;;;5006391;28;20206;-63
2022/09/23 13:36:25;;;;;;;4.20;2.13;;;22.10;4.50;;;;;;4990617;28;20221;-62
2022/09/23 13:39:11;;;;;;;2.70;2.00;;;22.00;3.20;;;;;;4981740;28;20217;-61
2022/09/23 13:41:38;;;;;;;5.88;2.72;;;22.20;4.00;;;;;;4988963;28;20646;-62
2022/09/23 13:44:17;;;;;;;2.92;2.25;;;22.10;3.30;;;;;;4990608;28;20545;-62
2022/09/23 13:46:51;;;;;;;4.90;2.47;;;21.80;3.30;;;;;;5005475;28;20669;-63
2022/09/23 13:49:37;;;;;;;3.67;2.10;;;21.70;2.20;;;;;;4990601;28;20217;-62
2022/09/23 13:52:04;;;;;;;2.40;2.05;;;21.80;3.20;;;;;;4988432;28;20227;-62
2022/09/23 13:54:48;;;;;;;2.40;1.88;;;21.70;2.40;;;;;;4990644;28;20217;-62
2022/09/23 13:57:33;;;;;;;3.47;2.35;;;21.60;1.00;;;;;;4991133;28;20205;-62